createdAt,value
2023-02-16T00:02:02.803Z,-10832.03
2023-02-16T00:05:24.284Z,-10838.59
2023-02-16T00:08:30.297Z,-10840.41
2023-02-16T00:11:54.738Z,-10847.53
2023-02-16T00:15:01.224Z,-10851.47
2023-02-16T00:18:17.489Z,-10857.63
2023-02-16T00:21:25.030Z,-10849.78
2023-02-16T00:24:31.872Z,-10860.41
2023-02-16T00:27:39.378Z,-10850.06
2023-02-16T00:30:45.620Z,-10841.94
2023-02-16T00:33:51.853Z,-10841.38
2023-02-16T00:37:01.529Z,-10836.22
2023-02-16T00:40:09.509Z,-10829.94
2023-02-16T00:43:27.329Z,-10830.47
2023-02-16T00:46:33.920Z,-10828.53
2023-02-16T00:49:39.975Z,-10837.75
2023-02-16T00:52:48.601Z,-10823.22
2023-02-16T00:55:55.185Z,-10830.34
2023-02-16T00:59:03.669Z,-10827.00
2023-02-16T01:02:09.537Z,-10829.94
2023-02-16T01:05:15.685Z,-10847.97
2023-02-16T01:08:40.628Z,-10850.06
2023-02-16T01:11:46.912Z,-10851.03
2023-02-16T01:14:55.801Z,-10851.75
2023-02-16T01:18:01.891Z,-10832.31
2023-02-16T01:21:08.094Z,-10831.31
2023-02-16T01:24:15.905Z,-10829.66
2023-02-16T01:27:22.350Z,-10829.94
2023-02-16T01:30:29.119Z,-10824.47
2023-02-16T01:33:35.769Z,-10823.22
2023-02-16T01:36:44.497Z,-10830.47
2023-02-16T01:39:52.912Z,-10837.06
2023-02-16T01:43:05.369Z,-10837.63
2023-02-16T01:46:18.169Z,-10844.31
2023-02-16T01:49:24.553Z,-10847.53
2023-02-16T01:52:35.983Z,-10850.34
2023-02-16T01:55:46.447Z,-10851.19
2023-02-16T01:58:56.113Z,-10837.91
2023-02-16T02:02:03.904Z,-10840.84
2023-02-16T02:05:37.186Z,-10845.88
2023-02-16T02:08:48.107Z,-10826.28
2023-02-16T02:12:02.024Z,-10844.31
2023-02-16T02:15:10.304Z,-10812.31
2023-02-16T02:18:16.538Z,-10802.81
2023-02-16T02:22:04.629Z,-10794.84
2023-02-16T02:25:36.930Z,-10792.47
2023-02-16T02:28:55.399Z,-10815.53
2023-02-16T02:32:08.876Z,-10834.69
2023-02-16T02:35:33.894Z,-10825.16
2023-02-16T02:38:49.081Z,-10805.31
2023-02-16T02:42:06.840Z,-10818.19
2023-02-16T02:45:20.120Z,-10817.75
2023-02-16T02:48:31.787Z,-10833.84
2023-02-16T02:51:40.473Z,-10830.22
2023-02-16T02:55:06.676Z,-10829.66
2023-02-16T02:58:31.090Z,-10830.63
2023-02-16T03:01:43.011Z,-10800.56
2023-02-16T03:04:49.817Z,-10794.56
2023-02-16T03:08:06.542Z,-10795.25
2023-02-16T03:11:33.706Z,-10818.59
2023-02-16T03:14:45.163Z,-10806.31
2023-02-16T03:18:13.630Z,-10802.81
2023-02-16T03:21:37.097Z,-10815.66
2023-02-16T03:25:00.841Z,-10809.38
2023-02-16T03:28:26.473Z,-10816.94
2023-02-16T03:31:36.062Z,-10822.09
2023-02-16T03:34:44.221Z,-10805.47
2023-02-16T03:37:50.777Z,-10804.50
2023-02-16T03:40:57.630Z,-10822.53
2023-02-16T03:44:03.738Z,-10822.94
2023-02-16T03:47:11.178Z,-10820.41
2023-02-16T03:50:19.084Z,-10821.25
2023-02-16T03:53:25.428Z,-10807.69
2023-02-16T03:56:31.959Z,-10815.53
2023-02-16T03:59:38.269Z,-10820.97
2023-02-16T04:02:44.549Z,-10817.91
2023-02-16T04:05:52.118Z,-10814.56
2023-02-16T04:08:58.458Z,-10806.72
2023-02-16T04:12:21.974Z,-10808.13
2023-02-16T04:15:29.718Z,-10807.00
2023-02-16T04:18:36.276Z,-10800.72
2023-02-16T04:21:44.190Z,-10803.22
2023-02-16T04:24:50.530Z,-10800.56
2023-02-16T04:27:56.837Z,-10786.59
2023-02-16T04:31:03.306Z,-10804.22
2023-02-16T04:34:09.615Z,-10792.75
2023-02-16T04:37:17.012Z,-10803.09
2023-02-16T04:40:23.254Z,-10789.97
2023-02-16T04:43:29.426Z,-10805.59
2023-02-16T04:46:36.062Z,-10797.22
2023-02-16T04:49:42.504Z,-10808.13
2023-02-16T04:52:50.252Z,-10804.22
2023-02-16T04:55:56.341Z,-10791.34
2023-02-16T04:59:02.351Z,-10802.53
2023-02-16T05:02:08.714Z,-10804.50
2023-02-16T05:05:15.120Z,-10809.09
2023-02-16T05:08:22.663Z,-10800.16
2023-02-16T05:11:46.364Z,-10802.81
2023-02-16T05:14:52.774Z,-10800.72
2023-02-16T05:17:59.086Z,-10785.91
2023-02-16T05:21:27.625Z,-10796.66
2023-02-16T05:24:36.157Z,-10789.97
2023-02-16T05:27:42.234Z,-10795.97
2023-02-16T05:30:48.649Z,-10803.09
2023-02-16T05:33:55.256Z,-10804.63
2023-02-16T05:37:01.509Z,-10810.78
2023-02-16T05:40:11.006Z,-10771.53
2023-02-16T05:43:17.297Z,-10767.34
2023-02-16T05:46:24.748Z,-10778.78
2023-02-16T05:49:31.478Z,-10797.34
2023-02-16T05:52:37.893Z,-10815.53
2023-02-16T05:55:45.555Z,-10807.28
2023-02-16T05:58:52.599Z,-10810.63
2023-02-16T06:01:59.048Z,-10813.72
2023-02-16T06:05:05.782Z,-10815.66
2023-02-16T06:08:12.372Z,-10815.94
2023-02-16T06:11:37.957Z,-10829.94
2023-02-16T06:14:44.402Z,-10835.25
2023-02-16T06:17:50.386Z,-10817.75
2023-02-16T06:20:58.353Z,-10840.84
2023-02-16T06:24:04.746Z,-10864.75
2023-02-16T06:27:12.339Z,-10882.94
2023-02-16T06:30:19.463Z,-10883.63
2023-02-16T06:33:25.733Z,-10891.75
2023-02-16T06:36:32.110Z,-10904.22
2023-02-16T06:39:38.437Z,-10908.69
2023-02-16T06:42:46.115Z,-10900.56
2023-02-16T06:45:52.492Z,-10895.53
2023-02-16T06:48:58.792Z,-10888.97
2023-02-16T06:52:05.262Z,-10891.19
2023-02-16T06:55:11.618Z,-10877.06
2023-02-16T06:58:19.340Z,-10893.00
2023-02-16T07:01:26.244Z,-10898.47
2023-02-16T07:04:32.727Z,-10913.72
2023-02-16T07:07:38.915Z,-10914.84
2023-02-16T07:10:50.183Z,-10919.34
2023-02-16T07:13:58.524Z,-10928.16
2023-02-16T07:17:04.986Z,-10931.94
2023-02-16T07:20:13.590Z,-10940.63
2023-02-16T07:23:19.891Z,-10932.38
2023-02-16T07:26:26.444Z,-10935.84
2023-02-16T07:29:34.358Z,-10940.91
2023-02-16T07:32:40.471Z,-10952.53
2023-02-16T07:35:46.598Z,-10963.47
2023-02-16T07:38:53.769Z,-10958.41
2023-02-16T07:41:59.741Z,-10950.84
2023-02-16T07:45:08.124Z,-10958.41
2023-02-16T07:48:14.845Z,-10963.03
2023-02-16T07:51:25.253Z,-10953.94
2023-02-16T07:54:33.102Z,-10975.38
2023-02-16T07:57:40.906Z,-10988.97
2023-02-16T08:00:48.618Z,-10982.25
2023-02-16T08:03:55.515Z,-10996.81
2023-02-16T08:07:01.813Z,-10991.34
2023-02-16T08:10:09.034Z,-10991.34
2023-02-16T08:13:15.233Z,-10989.53
2023-02-16T08:16:24.631Z,-10992.19
2023-02-16T08:19:31.211Z,-11015.47
2023-02-16T08:22:38.381Z,-11000.19
2023-02-16T08:25:45.954Z,-11001.31
2023-02-16T08:28:52.841Z,-11009.72
2023-02-16T08:32:01.589Z,-11021.63
2023-02-16T08:35:10.272Z,-11026.81
2023-02-16T08:38:17.450Z,-11031.88
2023-02-16T08:41:27.004Z,-11033.28
2023-02-16T08:44:33.437Z,-11041.69
2023-02-16T08:47:41.070Z,-11040.28
2023-02-16T08:50:53.573Z,-11052.34
2023-02-16T08:54:02.360Z,-11060.50
2023-02-16T08:57:09.996Z,-11054.03
2023-02-16T09:00:35.704Z,-11056.00
2023-02-16T09:03:44.981Z,-11065.28
2023-02-16T09:06:52.558Z,-11071.88
2023-02-16T09:09:58.617Z,-11080.00
2023-02-16T09:13:04.630Z,-11077.47
2023-02-16T09:16:12.867Z,-11071.72
2023-02-16T09:19:22.481Z,-11061.91
2023-02-16T09:22:28.738Z,-11077.63
2023-02-16T09:25:37.018Z,-11102.91
2023-02-16T09:28:44.742Z,-11118.63
2023-02-16T09:31:52.297Z,-11102.34
2023-02-16T09:34:59.977Z,-11102.06
2023-02-16T09:38:07.838Z,-11100.94
2023-02-16T09:41:24.375Z,-11122.69
2023-02-16T09:44:39.873Z,-11121.56
2023-02-16T09:47:51.277Z,-11137.44
2023-02-16T09:51:00.682Z,-11146.72
2023-02-16T09:54:21.438Z,-11154.03
2023-02-16T09:57:43.415Z,-11148.13
2023-02-16T10:00:53.928Z,-11137.16
2023-02-16T10:04:17.052Z,-11164.28
2023-02-16T10:07:33.334Z,-11155.44
2023-02-16T10:10:49.444Z,-11164.56
2023-02-16T10:13:58.310Z,-11169.63
2023-02-16T10:17:18.416Z,-11169.50
2023-02-16T10:20:28.171Z,-11165.69
2023-02-16T10:23:46.678Z,-11181.28
2023-02-16T10:26:59.606Z,-11193.66
2023-02-16T10:30:13.780Z,-11190.28
2023-02-16T10:33:34.671Z,-11205.34
2023-02-16T10:36:58.626Z,-11195.91
2023-02-16T10:40:23.312Z,-11195.34
2023-02-16T10:43:41.687Z,-11201.81
2023-02-16T10:46:53.343Z,-11217.56
2023-02-16T10:50:00.057Z,-11213.34
2023-02-16T10:53:11.629Z,-11213.34
2023-02-16T10:56:40.754Z,-11235.16
2023-02-16T10:59:48.410Z,-11237.41
2023-02-16T11:02:55.550Z,-11230.78
2023-02-16T11:06:14.860Z,-11250.06
2023-02-16T11:09:29.440Z,-11236.16
2023-02-16T11:12:40.124Z,-11261.19
2023-02-16T11:15:54.720Z,-11247.41
2023-02-16T11:19:02.650Z,-11255.28
2023-02-16T11:22:25.957Z,-11244.31
2023-02-16T11:25:32.482Z,-11254.00
2023-02-16T11:28:43.006Z,-11257.81
2023-02-16T11:31:49.309Z,-11253.44
2023-02-16T11:34:55.632Z,-11256.97
2023-02-16T11:38:01.961Z,-11253.31
2023-02-16T11:41:08.701Z,-11266.53
2023-02-16T11:44:27.878Z,-11274.12
2023-02-16T11:47:36.264Z,-11291.72
2023-02-16T11:50:58.063Z,-11282.56
2023-02-16T11:54:07.920Z,-11300.47
2023-02-16T11:57:15.873Z,-11265.41
2023-02-16T12:00:26.681Z,-11298.34
2023-02-16T12:03:59.940Z,-11271.88
2023-02-16T12:07:15.672Z,-11269.06
2023-02-16T12:10:27.905Z,-11272.59
2023-02-16T12:13:43.103Z,-11293.56
2023-02-16T12:17:00.570Z,-11308.19
2023-02-16T12:20:21.828Z,-11294.41
2023-02-16T12:23:38.368Z,-11288.78
2023-02-16T12:26:50.186Z,-11307.50
2023-02-16T12:30:02.637Z,-11317.22
2023-02-16T12:33:26.283Z,-11322.28
2023-02-16T12:36:53.322Z,-11313.56
2023-02-16T12:40:09.140Z,-11318.06
2023-02-16T12:43:38.542Z,-11331.44
2023-02-16T12:46:46.969Z,-11319.75
2023-02-16T12:49:58.994Z,-11320.31
2023-02-16T12:53:10.773Z,-11332.00
2023-02-16T12:56:24.009Z,-11344.97
2023-02-16T12:59:40.917Z,-11320.31
2023-02-16T13:02:52.460Z,-11330.16
2023-02-16T13:06:19.721Z,-11314.69
2023-02-16T13:09:37.505Z,-11341.56
2023-02-16T13:12:51.253Z,-11331.56
2023-02-16T13:16:04.926Z,-11322.84
2023-02-16T13:19:13.440Z,-11316.38
2023-02-16T13:22:58.919Z,-11308.91
2023-02-16T13:26:50.392Z,-11304.13
2023-02-16T13:30:35.180Z,-11306.50
2023-02-16T13:34:05.751Z,-11321.16
2023-02-16T13:37:25.442Z,-11316.66
2023-02-16T13:41:16.628Z,-11321.16
2023-02-16T13:44:25.739Z,-11321.28
2023-02-16T13:47:34.700Z,-11331.28
2023-02-16T13:50:41.561Z,-11328.06
2023-02-16T13:53:55.738Z,-11325.38
2023-02-16T13:57:04.692Z,-11326.78
2023-02-16T14:00:30.321Z,-11326.50
2023-02-16T14:03:39.472Z,-11323.25
2023-02-16T14:06:46.434Z,-11328.34
2023-02-16T14:09:52.633Z,-11316.38
2023-02-16T14:13:00.649Z,-11332.41
2023-02-16T14:16:11.831Z,-11333.56
2023-02-16T14:19:26.109Z,-11334.09
2023-02-16T14:22:42.672Z,-11319.47
2023-02-16T14:25:51.278Z,-11310.72
2023-02-16T14:29:19.244Z,-11294.13
2023-02-16T14:32:29.632Z,-11284.84
2023-02-16T14:35:38.438Z,-11275.25
2023-02-16T14:38:48.218Z,-11269.34
2023-02-16T14:41:56.027Z,-11264.56
2023-02-16T14:45:27.799Z,-11253.31
2023-02-16T14:49:04.145Z,-11255.56
2023-02-16T14:52:43.802Z,-11239.94
2023-02-16T14:56:10.519Z,-11231.50
2023-02-16T14:59:31.999Z,-11222.63
2023-02-16T15:02:42.146Z,-11220.09
2023-02-16T15:05:58.001Z,-11229.37
2023-02-16T15:09:14.215Z,-11208.84
2023-02-16T15:12:24.324Z,-11206.59
2023-02-16T15:15:42.108Z,-11205.06
2023-02-16T15:18:52.902Z,-11191.69
2023-02-16T15:22:10.551Z,-11177.34
2023-02-16T15:25:24.420Z,-11180.16
2023-02-16T15:28:34.037Z,-11170.91
2023-02-16T15:31:40.714Z,-11165.97
2023-02-16T15:34:48.762Z,-11164.84
2023-02-16T15:38:03.315Z,-11166.41
2023-02-16T15:41:14.338Z,-11156.56
2023-02-16T15:44:32.710Z,-11147.13
2023-02-16T15:47:38.840Z,-11147.56
2023-02-16T15:50:46.923Z,-11144.63
2023-02-16T15:53:56.633Z,-11138.28
2023-02-16T15:57:06.855Z,-11141.53
2023-02-16T16:00:19.547Z,-11144.75
2023-02-16T16:03:25.606Z,-11135.19
2023-02-16T16:06:41.934Z,-11130.28
2023-02-16T16:09:48.670Z,-11128.19
2023-02-16T16:12:59.159Z,-11124.81
2023-02-16T16:16:07.375Z,-11114.28
2023-02-16T16:19:18.556Z,-11103.75
2023-02-16T16:22:37.189Z,-11101.22
2023-02-16T16:25:45.918Z,-11119.75
2023-02-16T16:28:52.987Z,-11105.72
2023-02-16T16:31:59.682Z,-11103.19
2023-02-16T16:35:21.426Z,-11107.97
2023-02-16T16:38:36.171Z,-11102.47
2023-02-16T16:41:42.269Z,-11106.13
2023-02-16T16:45:00.166Z,-11091.94
2023-02-16T16:48:15.530Z,-11098.41
2023-02-16T16:51:36.494Z,-11090.25
2023-02-16T16:54:46.537Z,-11103.75
2023-02-16T16:57:54.436Z,-11095.31
2023-02-16T17:01:00.618Z,-11092.78
2023-02-16T17:04:06.742Z,-11078.19
2023-02-16T17:07:12.878Z,-11062.75
2023-02-16T17:10:22.273Z,-11057.56
2023-02-16T17:13:29.040Z,-11054.47
2023-02-16T17:16:39.708Z,-11046.75
2023-02-16T17:19:46.087Z,-11049.28
2023-02-16T17:22:52.521Z,-11051.25
2023-02-16T17:26:00.326Z,-11047.59
2023-02-16T17:29:07.605Z,-11032.44
2023-02-16T17:32:13.882Z,-11044.22
2023-02-16T17:35:19.845Z,-11041.28
2023-02-16T17:38:26.361Z,-11030.63
2023-02-16T17:41:34.164Z,-11029.91
2023-02-16T17:44:40.408Z,-11026.81
2023-02-16T17:47:48.257Z,-11032.00
2023-02-16T17:50:54.676Z,-11025.16
2023-02-16T17:54:00.798Z,-11021.06
2023-02-16T17:57:08.554Z,-11017.56
2023-02-16T18:00:19.281Z,-11017.84
2023-02-16T18:03:25.597Z,-11010.97
2023-02-16T18:06:32.040Z,-11012.81
2023-02-16T18:09:38.486Z,-11018.28
2023-02-16T18:12:46.372Z,-11003.97
2023-02-16T18:15:53.007Z,-11002.84
2023-02-16T18:18:59.635Z,-10995.00
2023-02-16T18:22:05.804Z,-11002.28
2023-02-16T18:25:11.803Z,-11000.59
2023-02-16T18:28:21.602Z,-10998.22
2023-02-16T18:31:28.039Z,-10992.63
2023-02-16T18:34:35.155Z,-10985.75
2023-02-16T18:37:41.577Z,-10977.34
2023-02-16T18:40:47.755Z,-10979.56
2023-02-16T18:43:55.154Z,-10978.03
2023-02-16T18:47:01.888Z,-10981.41
2023-02-16T18:50:09.184Z,-10980.41
2023-02-16T18:53:15.269Z,-10979.44
2023-02-16T18:56:21.516Z,-10977.91
2023-02-16T18:59:29.227Z,-10975.09
2023-02-16T19:02:35.443Z,-10970.59
2023-02-16T19:05:41.727Z,-10971.72
2023-02-16T19:08:48.607Z,-10972.28
2023-02-16T19:11:56.199Z,-10965.84
2023-02-16T19:15:04.165Z,-10960.38
2023-02-16T19:18:10.499Z,-10968.50
2023-02-16T19:21:17.045Z,-10952.66
2023-02-16T19:24:23.314Z,-10965.41
2023-02-16T19:27:29.878Z,-10956.31
2023-02-16T19:30:37.537Z,-10961.50
2023-02-16T19:33:43.976Z,-10948.88
2023-02-16T19:36:50.257Z,-10955.06
2023-02-16T19:39:56.501Z,-10955.75
2023-02-16T19:43:02.877Z,-10936.41
2023-02-16T19:46:12.021Z,-10944.97
2023-02-16T19:49:19.359Z,-10947.63
2023-02-16T19:52:25.817Z,-10949.03
2023-02-16T19:55:32.281Z,-10942.88
2023-02-16T19:58:38.802Z,-10946.09
2023-02-16T20:01:46.631Z,-10945.66
2023-02-16T20:04:55.300Z,-10950.84
2023-02-16T20:08:02.338Z,-10948.88
2023-02-16T20:11:09.113Z,-10944.53
2023-02-16T20:14:15.532Z,-10932.09
2023-02-16T20:17:23.691Z,-10924.78
2023-02-16T20:20:30.400Z,-10937.81
2023-02-16T20:23:37.663Z,-10912.19
2023-02-16T20:26:45.866Z,-10934.75
2023-02-16T20:29:52.031Z,-10940.75
2023-02-16T20:33:00.380Z,-10933.06
2023-02-16T20:36:07.403Z,-10937.97
2023-02-16T20:39:14.138Z,-10941.59
2023-02-16T20:42:20.863Z,-10930.25
2023-02-16T20:45:28.787Z,-10928.16
2023-02-16T20:48:37.193Z,-10927.03
2023-02-16T20:51:43.644Z,-10930.13
2023-02-16T20:54:50.266Z,-10929.84
2023-02-16T20:57:56.868Z,-10929.56
2023-02-16T21:01:03.212Z,-10932.50
2023-02-16T21:04:12.454Z,-10926.34
2023-02-16T21:07:18.536Z,-10932.91
2023-02-16T21:10:25.433Z,-10933.34
2023-02-16T21:13:31.938Z,-10938.25
2023-02-16T21:16:41.887Z,-10918.91
2023-02-16T21:19:49.870Z,-10920.03
2023-02-16T21:22:56.316Z,-10920.44
2023-02-16T21:26:06.334Z,-10909.41
2023-02-16T21:29:13.220Z,-10899.47
2023-02-16T21:32:19.493Z,-10894.28
2023-02-16T21:35:27.172Z,-10900.84
2023-02-16T21:38:33.743Z,-10886.72
2023-02-16T21:41:40.428Z,-10891.47
2023-02-16T21:44:50.244Z,-10896.78
2023-02-16T21:48:14.157Z,-10895.13
2023-02-16T21:51:24.937Z,-10905.06
2023-02-16T21:54:44.940Z,-10911.63
2023-02-16T21:57:51.153Z,-10915.13
2023-02-16T22:00:57.689Z,-10916.97
2023-02-16T22:04:05.810Z,-10917.09
2023-02-16T22:07:13.529Z,-10914.84
2023-02-16T22:10:19.791Z,-10909.69
2023-02-16T22:13:26.041Z,-10889.50
2023-02-16T22:16:34.311Z,-10893.84
2023-02-16T22:19:40.832Z,-10896.66
2023-02-16T22:22:48.698Z,-10902.66
2023-02-16T22:25:54.822Z,-10898.19
2023-02-16T22:29:03.681Z,-10900.44
2023-02-16T22:32:13.271Z,-10877.19
2023-02-16T22:35:19.753Z,-10876.63
2023-02-16T22:38:27.956Z,-10894.00
2023-02-16T22:41:34.923Z,-10897.34
2023-02-16T22:44:41.472Z,-10890.50
2023-02-16T22:47:47.597Z,-10888.41
2023-02-16T22:50:59.059Z,-10894.28
2023-02-16T22:54:07.438Z,-10903.09
2023-02-16T22:57:13.522Z,-10897.34
2023-02-16T23:00:20.165Z,-10882.09
2023-02-16T23:03:26.776Z,-10890.06
2023-02-16T23:06:35.085Z,-10868.94
2023-02-16T23:09:42.650Z,-10870.34
2023-02-16T23:12:49.042Z,-10870.22
2023-02-16T23:15:55.412Z,-10873.84
2023-02-16T23:19:01.890Z,-10886.31
2023-02-16T23:22:08.278Z,-10877.34
2023-02-16T23:25:34.673Z,-10873.00
2023-02-16T23:28:42.988Z,-10861.66
2023-02-16T23:31:49.630Z,-10869.78
2023-02-16T23:34:55.879Z,-10864.19
2023-02-16T23:38:03.814Z,-10866.00
2023-02-16T23:41:14.450Z,-10867.56
2023-02-16T23:44:20.772Z,-10845.44
2023-02-16T23:47:27.450Z,-10864.47
2023-02-16T23:50:33.949Z,-10871.88
2023-02-16T23:53:40.156Z,-10854.25
2023-02-16T23:56:47.953Z,-10871.59
2023-02-16T23:59:54.323Z,-10856.34
